sensor_id;sensor_type;location;lat;lon;timestamp;pressure;altitude;pressure_sealevel;temperature;humidity
22283;BME280;11310;51.528;21.204;2023-12-04T00:01:54;100421.59;;;-1.87;100.00
22283;BME280;11310;51.528;21.204;2023-12-04T00:04:23;100420.75;;;-1.86;100.00
22283;BME280;11310;51.528;21.204;2023-12-04T00:06:56;100422.50;;;-1.85;100.00
22283;BME280;11310;51.528;21.204;2023-12-04T00:09:25;100426.81;;;-1.79;100.00
22283;BME280;11310;51.528;21.204;2023-12-04T00:11:54;100424.25;;;-1.81;100.00
22283;BME280;11310;51.528;21.204;2023-12-04T00:14:23;100425.97;;;-1.80;100.00
22283;BME280;11310;51.528;21.204;2023-12-04T00:16:51;100424.25;;;-1.78;100.00
22283;BME280;11310;51.528;21.204;2023-12-04T00:19:20;100428.53;;;-1.80;100.00
22283;BME280;11310;51.528;21.204;2023-12-04T00:21:48;100427.66;;;-1.82;100.00
22283;BME280;11310;51.528;21.204;2023-12-04T00:24:19;100425.94;;;-1.83;100.00
22283;BME280;11310;51.528;21.204;2023-12-04T00:26:47;100431.94;;;-1.84;100.00
22283;BME280;11310;51.528;21.204;2023-12-04T00:29:18;100427.66;;;-1.80;100.00
22283;BME280;11310;51.528;21.204;2023-12-04T00:31:47;100427.66;;;-1.82;100.00
22283;BME280;11310;51.528;21.204;2023-12-04T00:34:16;100426.81;;;-1.81;100.00
22283;BME280;11310;51.528;21.204;2023-12-04T00:36:45;100433.69;;;-1.80;100.00
22283;BME280;11310;51.528;21.204;2023-12-04T00:39:16;100431.09;;;-1.81;100.00
22283;BME280;11310;51.528;21.204;2023-12-04T00:41:49;100433.63;;;-1.84;100.00
22283;BME280;11310;51.528;21.204;2023-12-04T00:44:17;100437.03;;;-1.87;100.00
22283;BME280;11310;51.528;21.204;2023-12-04T00:46:45;100435.31;;;-1.88;100.00
22283;BME280;11310;51.528;21.204;2023-12-04T00:49:20;100443.03;;;-1.88;100.00
22283;BME280;11310;51.528;21.204;2023-12-04T00:51:50;100439.63;;;-1.85;100.00
22283;BME280;11310;51.528;21.204;2023-12-04T00:54:18;100442.22;;;-1.84;100.00
22283;BME280;11310;51.528;21.204;2023-12-04T00:56:48;100438.75;;;-1.84;100.00
22283;BME280;11310;51.528;21.204;2023-12-04T00:59:17;100431.94;;;-1.84;100.00
22283;BME280;11310;51.528;21.204;2023-12-04T01:01:45;100439.63;;;-1.85;100.00
22283;BME280;11310;51.528;21.204;2023-12-04T01:04:16;100437.91;;;-1.86;100.00
22283;BME280;11310;51.528;21.204;2023-12-04T01:06:44;100433.63;;;-1.87;100.00
22283;BME280;11310;51.528;21.204;2023-12-04T01:09:13;100441.31;;;-1.87;100.00
22283;BME280;11310;51.528;21.204;2023-12-04T01:11:42;100437.00;;;-1.88;100.00
22283;BME280;11310;51.528;21.204;2023-12-04T01:14:12;100439.56;;;-1.91;100.00
22283;BME280;11310;51.528;21.204;2023-12-04T01:16:40;100448.19;;;-1.86;100.00
22283;BME280;11310;51.528;21.204;2023-12-04T01:19:11;100446.47;;;-1.87;100.00
22283;BME280;11310;51.528;21.204;2023-12-04T01:21:39;100455.03;;;-1.87;100.00
22283;BME280;11310;51.528;21.204;2023-12-04T01:24:08;100455.91;;;-1.85;100.00
22283;BME280;11310;51.528;21.204;2023-12-04T01:26:36;100459.31;;;-1.86;100.00
22283;BME280;11310;51.528;21.204;2023-12-04T01:29:06;100454.16;;;-1.89;100.00
22283;BME280;11310;51.528;21.204;2023-12-04T01:31:37;100459.28;;;-1.89;100.00
22283;BME280;11310;51.528;21.204;2023-12-04T01:34:05;100461.00;;;-1.88;100.00
22283;BME280;11310;51.528;21.204;2023-12-04T01:36:34;100456.75;;;-1.87;100.00
22283;BME280;11310;51.528;21.204;2023-12-04T01:39:04;100458.47;;;-1.85;100.00
22283;BME280;11310;51.528;21.204;2023-12-04T01:41:32;100459.34;;;-1.83;100.00
22283;BME280;11310;51.528;21.204;2023-12-04T01:44:01;100455.03;;;-1.85;100.00
22283;BME280;11310;51.528;21.204;2023-12-04T01:46:29;100452.47;;;-1.85;100.00
22283;BME280;11310;51.528;21.204;2023-12-04T01:49:02;100450.78;;;-1.85;100.00
22283;BME280;11310;51.528;21.204;2023-12-04T01:51:31;100462.75;;;-1.85;100.00
22283;BME280;11310;51.528;21.204;2023-12-04T01:54:03;100459.28;;;-1.89;100.00
22283;BME280;11310;51.528;21.204;2023-12-04T01:56:34;100462.72;;;-1.90;100.00
22283;BME280;11310;51.528;21.204;2023-12-04T01:59:04;100468.72;;;-1.89;100.00
22283;BME280;11310;51.528;21.204;2023-12-04T02:01:33;100455.00;;;-1.91;100.00
22283;BME280;11310;51.528;21.204;2023-12-04T02:04:04;100459.28;;;-1.89;100.00
22283;BME280;11310;51.528;21.204;2023-12-04T02:06:33;100454.16;;;-1.89;100.00
22283;BME280;11310;51.528;21.204;2023-12-04T02:09:05;100459.28;;;-1.89;100.00
22283;BME280;11310;51.528;21.204;2023-12-04T02:11:38;100460.19;;;-1.85;100.00
22283;BME280;11310;51.528;21.204;2023-12-04T02:14:08;100453.31;;;-1.86;100.00
22283;BME280;11310;51.528;21.204;2023-12-04T02:16:40;100458.41;;;-1.89;100.00
22283;BME280;11310;51.528;21.204;2023-12-04T02:19:12;100467.88;;;-1.90;100.00
22283;BME280;11310;51.528;21.204;2023-12-04T02:21:41;100454.13;;;-1.92;100.00
22283;BME280;11310;51.528;21.204;2023-12-04T02:24:14;100462.72;;;-1.90;100.00
22283;BME280;11310;51.528;21.204;2023-12-04T02:26:47;100452.44;;;-1.88;100.00
22283;BME280;11310;51.528;21.204;2023-12-04T02:29:23;100453.31;;;-1.88;100.00
22283;BME280;11310;51.528;21.204;2023-12-04T02:31:55;100445.59;;;-1.88;100.00
22283;BME280;11310;51.528;21.204;2023-12-04T02:34:25;100457.59;;;-1.85;100.00
22283;BME280;11310;51.528;21.204;2023-12-04T02:36:56;100443.88;;;-1.86;100.00
22283;BME280;11310;51.528;21.204;2023-12-04T02:39:28;100450.72;;;-1.88;100.00
22283;BME280;11310;51.528;21.204;2023-12-04T02:41:56;100456.69;;;-1.90;100.00
22283;BME280;11310;51.528;21.204;2023-12-04T02:44:25;100452.41;;;-1.93;100.00
22283;BME280;11310;51.528;21.204;2023-12-04T02:46:53;100461.81;;;-1.92;100.00
22283;BME280;11310;51.528;21.204;2023-12-04T02:49:22;100467.88;;;-1.90;100.00
22283;BME280;11310;51.528;21.204;2023-12-04T02:51:51;100460.97;;;-1.91;100.00
22283;BME280;11310;51.528;21.204;2023-12-04T02:54:19;100470.44;;;-1.90;100.00
22283;BME280;11310;51.528;21.204;2023-12-04T02:56:49;100462.72;;;-1.90;100.00
22283;BME280;11310;51.528;21.204;2023-12-04T02:59:18;100465.28;;;-1.90;100.00
22283;BME280;11310;51.528;21.204;2023-12-04T03:01:46;100475.56;;;-1.88;100.00
22283;BME280;11310;51.528;21.204;2023-12-04T03:04:15;100479.84;;;-1.89;100.00
22283;BME280;11310;51.528;21.204;2023-12-04T03:06:43;100478.16;;;-1.87;100.00
22283;BME280;11310;51.528;21.204;2023-12-04T03:09:11;100479.00;;;-1.88;100.00
22283;BME280;11310;51.528;21.204;2023-12-04T03:11:40;100477.31;;;-1.84;100.00
22283;BME280;11310;51.528;21.204;2023-12-04T03:14:10;100479.06;;;-1.85;100.00
22283;BME280;11310;51.528;21.204;2023-12-04T03:16:39;100485.00;;;-1.86;100.00
22283;BME280;11310;51.528;21.204;2023-12-04T03:19:07;100479.88;;;-1.86;100.00
22283;BME280;11310;51.528;21.204;2023-12-04T03:21:36;100478.19;;;-1.84;100.00
22283;BME280;11310;51.528;21.204;2023-12-04T03:24:05;100485.88;;;-1.85;100.00
22283;BME280;11310;51.528;21.204;2023-12-04T03:26:36;100492.75;;;-1.84;100.00
22283;BME280;11310;51.528;21.204;2023-12-04T03:29:04;100486.75;;;-1.85;100.00
22283;BME280;11310;51.528;21.204;2023-12-04T03:31:34;100498.75;;;-1.84;100.00
22283;BME280;11310;51.528;21.204;2023-12-04T03:34:03;100497.03;;;-1.85;100.00
22283;BME280;11310;51.528;21.204;2023-12-04T03:36:33;100506.44;;;-1.85;100.00
22283;BME280;11310;51.528;21.204;2023-12-04T03:39:04;100506.50;;;-1.82;100.00
22283;BME280;11310;51.528;21.204;2023-12-04T03:41:32;100509.09;;;-1.81;100.00
22283;BME280;11310;51.528;21.204;2023-12-04T03:44:01;100509.09;;;-1.79;100.00
22283;BME280;11310;51.528;21.204;2023-12-04T03:46:29;100503.97;;;-1.78;100.00
22283;BME280;11310;51.528;21.204;2023-12-04T03:48:59;100507.34;;;-1.82;100.00
22283;BME280;11310;51.528;21.204;2023-12-04T03:51:28;100502.19;;;-1.82;100.00
22283;BME280;11310;51.528;21.204;2023-12-04T03:53:56;100503.94;;;-1.81;100.00
22283;BME280;11310;51.528;21.204;2023-12-04T03:56:25;100503.06;;;-1.81;100.00
22283;BME280;11310;51.528;21.204;2023-12-04T03:58:55;100515.09;;;-1.79;100.00
22283;BME280;11310;51.528;21.204;2023-12-04T04:01:23;100515.94;;;-1.80;100.00
22283;BME280;11310;51.528;21.204;2023-12-04T04:03:51;100513.38;;;-1.80;100.00
22283;BME280;11310;51.528;21.204;2023-12-04T04:06:21;100515.94;;;-1.80;100.00
22283;BME280;11310;51.528;21.204;2023-12-04T04:08:49;100517.63;;;-1.82;100.00
22283;BME280;11310;51.528;21.204;2023-12-04T04:11:19;100516.75;;;-1.84;100.00
22283;BME280;11310;51.528;21.204;2023-12-04T04:13:48;100518.50;;;-1.81;100.00
22283;BME280;11310;51.528;21.204;2023-12-04T04:16:16;100519.38;;;-1.81;100.00
22283;BME280;11310;51.528;21.204;2023-12-04T04:18:47;100511.63;;;-1.82;100.00
22283;BME280;11310;51.528;21.204;2023-12-04T04:21:22;100524.50;;;-1.82;100.00
22283;BME280;11310;51.528;21.204;2023-12-04T04:23:51;100529.66;;;-1.81;100.00
22283;BME280;11310;51.528;21.204;2023-12-04T04:26:20;100531.38;;;-1.80;100.00
22283;BME280;11310;51.528;21.204;2023-12-04T04:28:49;100525.34;;;-1.80;100.00
22283;BME280;11310;51.528;21.204;2023-12-04T04:31:21;100524.47;;;-1.84;100.00
22283;BME280;11310;51.528;21.204;2023-12-04T04:33:50;100525.31;;;-1.85;100.00
22283;BME280;11310;51.528;21.204;2023-12-04T04:36:18;100537.31;;;-1.85;100.00
22283;BME280;11310;51.528;21.204;2023-12-04T04:38:48;100533.03;;;-1.82;100.00
22283;BME280;11310;51.528;21.204;2023-12-04T04:41:17;100538.19;;;-1.82;100.00
22283;BME280;11310;51.528;21.204;2023-12-04T04:43:46;100539.03;;;-1.83;100.00
22283;BME280;11310;51.528;21.204;2023-12-04T04:46:14;100544.13;;;-1.86;100.00
22283;BME280;11310;51.528;21.204;2023-12-04T04:48:43;100554.41;;;-1.86;100.00
22283;BME280;11310;51.528;21.204;2023-12-04T04:51:13;100539.00;;;-1.87;100.00
22283;BME280;11310;51.528;21.204;2023-12-04T04:53:41;100543.28;;;-1.86;100.00
22283;BME280;11310;51.528;21.204;2023-12-04T04:56:12;100545.84;;;-1.88;100.00
22283;BME280;11310;51.528;21.204;2023-12-04T04:58:41;100542.41;;;-1.87;100.00
22283;BME280;11310;51.528;21.204;2023-12-04T05:01:09;100550.97;;;-1.89;100.00
22283;BME280;11310;51.528;21.204;2023-12-04T05:03:38;100546.69;;;-1.89;100.00
22283;BME280;11310;51.528;21.204;2023-12-04T05:06:07;100539.78;;;-1.93;100.00
22283;BME280;11310;51.528;21.204;2023-12-04T05:08:37;100542.34;;;-1.94;100.00
22283;BME280;11310;51.528;21.204;2023-12-04T05:11:07;100549.16;;;-1.95;100.00
22283;BME280;11310;51.528;21.204;2023-12-04T05:13:36;100551.72;;;-1.98;100.00
22283;BME280;11310;51.528;21.204;2023-12-04T05:16:05;100552.56;;;-1.99;100.00
22283;BME280;11310;51.528;21.204;2023-12-04T05:18:34;100549.09;;;-2.01;100.00
22283;BME280;11310;51.528;21.204;2023-12-04T05:21:03;100560.22;;;-2.02;100.00
22283;BME280;11310;51.528;21.204;2023-12-04T05:23:33;100555.06;;;-2.03;100.00
22283;BME280;11310;51.528;21.204;2023-12-04T05:26:02;100562.81;;;-2.00;100.00
22283;BME280;11310;51.528;21.204;2023-12-04T05:28:31;100557.66;;;-2.02;100.00
22283;BME280;11310;51.528;21.204;2023-12-04T05:31:02;100555.03;;;-2.05;100.00
22283;BME280;11310;51.528;21.204;2023-12-04T05:33:30;100557.63;;;-2.05;100.00
22283;BME280;11310;51.528;21.204;2023-12-04T05:36:02;100557.63;;;-2.03;100.00
22283;BME280;11310;51.528;21.204;2023-12-04T05:38:31;100560.22;;;-2.03;100.00
22283;BME280;11310;51.528;21.204;2023-12-04T05:41:00;100557.63;;;-2.05;100.00
22283;BME280;11310;51.528;21.204;2023-12-04T05:43:29;100558.50;;;-2.03;100.00
22283;BME280;11310;51.528;21.204;2023-12-04T05:45:59;100558.50;;;-2.03;100.00
22283;BME280;11310;51.528;21.204;2023-12-04T05:48:30;100553.31;;;-2.06;100.00
22283;BME280;11310;51.528;21.204;2023-12-04T05:50:58;100566.22;;;-2.03;100.00
22283;BME280;11310;51.528;21.204;2023-12-04T05:53:27;100562.72;;;-2.06;100.00
22283;BME280;11310;51.528;21.204;2023-12-04T05:55:56;100562.72;;;-2.09;100.00
22283;BME280;11310;51.528;21.204;2023-12-04T05:58:26;100548.91;;;-2.17;100.00
22283;BME280;11310;51.528;21.204;2023-12-04T06:00:55;100555.75;;;-2.16;100.00
22283;BME280;11310;51.528;21.204;2023-12-04T06:03:23;100559.16;;;-2.17;100.00
22283;BME280;11310;51.528;21.204;2023-12-04T06:05:54;100553.97;;;-2.20;100.00
22283;BME280;11310;51.528;21.204;2023-12-04T06:08:26;100559.09;;;-2.23;100.00
22283;BME280;11310;51.528;21.204;2023-12-04T06:10:54;100558.19;;;-2.25;100.00
22283;BME280;11310;51.528;21.204;2023-12-04T06:13:22;100559.03;;;-2.28;100.00
22283;BME280;11310;51.528;21.204;2023-12-04T06:15:53;100560.75;;;-2.28;100.00
22283;BME280;11310;51.528;21.204;2023-12-04T06:18:21;100560.72;;;-2.30;100.00
22283;BME280;11310;51.528;21.204;2023-12-04T06:20:55;100560.72;;;-2.30;100.00
22283;BME280;11310;51.528;21.204;2023-12-04T06:23:24;100565.00;;;-2.29;100.00
22283;BME280;11310;51.528;21.204;2023-12-04T06:25:53;100565.88;;;-2.28;100.00
22283;BME280;11310;51.528;21.204;2023-12-04T06:28:23;100565.91;;;-2.25;100.00
22283;BME280;11310;51.528;21.204;2023-12-04T06:30:52;100570.16;;;-2.27;100.00
22283;BME280;11310;51.528;21.204;2023-12-04T06:33:24;100570.19;;;-2.26;100.00
22283;BME280;11310;51.528;21.204;2023-12-04T06:35:58;100567.66;;;-2.24;100.00
22283;BME280;11310;51.528;21.204;2023-12-04T06:38:28;100563.38;;;-2.24;100.00
22283;BME280;11310;51.528;21.204;2023-12-04T06:41:00;100565.06;;;-2.26;100.00
22283;BME280;11310;51.528;21.204;2023-12-04T06:43:30;100565.06;;;-2.26;100.00
22283;BME280;11310;51.528;21.204;2023-12-04T06:46:00;100572.78;;;-2.26;100.00
22283;BME280;11310;51.528;21.204;2023-12-04T06:48:29;100574.47;;;-2.26;100.00
22283;BME280;11310;51.528;21.204;2023-12-04T06:50:59;100574.47;;;-2.25;100.00
22283;BME280;11310;51.528;21.204;2023-12-04T06:53:28;100579.66;;;-2.20;100.00
22283;BME280;11310;51.528;21.204;2023-12-04T06:55:56;100579.69;;;-2.19;100.00
22283;BME280;11310;51.528;21.204;2023-12-04T06:58:24;100577.09;;;-2.20;100.00
22283;BME280;11310;51.528;21.204;2023-12-04T07:00:53;100575.41;;;-2.20;100.00
22283;BME280;11310;51.528;21.204;2023-12-04T07:03:23;100575.47;;;-2.17;100.00
22283;BME280;11310;51.528;21.204;2023-12-04T07:05:53;100578.03;;;-2.17;100.00
22283;BME280;11310;51.528;21.204;2023-12-04T07:08:23;100578.88;;;-2.16;100.00
22283;BME280;11310;51.528;21.204;2023-12-04T07:10:52;100578.94;;;-2.12;100.00
22283;BME280;11310;51.528;21.204;2023-12-04T07:13:21;100588.38;;;-2.11;100.00
22283;BME280;11310;51.528;21.204;2023-12-04T07:15:49;100583.28;;;-2.08;100.00
22283;BME280;11310;51.528;21.204;2023-12-04T07:18:18;100595.28;;;-2.07;100.00
22283;BME280;11310;51.528;21.204;2023-12-04T07:20:46;100586.75;;;-2.04;100.00
22283;BME280;11310;51.528;21.204;2023-12-04T07:23:17;100591.94;;;-2.03;100.00
22283;BME280;11310;51.528;21.204;2023-12-04T07:25:48;100597.09;;;-1.98;100.00
22283;BME280;11310;51.528;21.204;2023-12-04T07:28:18;100589.47;;;-1.94;100.00
22283;BME280;11310;51.528;21.204;2023-12-04T07:30:47;100592.94;;;-1.90;100.00
22283;BME280;11310;51.528;21.204;2023-12-04T07:33:19;100596.34;;;-1.93;100.00
22283;BME280;11310;51.528;21.204;2023-12-04T07:35:48;100604.09;;;-1.90;100.00
22283;BME280;11310;51.528;21.204;2023-12-04T07:38:18;100599.81;;;-1.88;100.00
22283;BME280;11310;51.528;21.204;2023-12-04T07:40:48;100597.31;;;-1.85;100.00
22283;BME280;11310;51.528;21.204;2023-12-04T07:43:19;100601.63;;;-1.82;100.00
22283;BME280;11310;51.528;21.204;2023-12-04T07:45:48;100600.78;;;-1.80;100.00
22283;BME280;11310;51.528;21.204;2023-12-04T07:48:17;100600.75;;;-1.81;100.00
22283;BME280;11310;51.528;21.204;2023-12-04T07:50:46;100596.50;;;-1.81;100.00
22283;BME280;11310;51.528;21.204;2023-12-04T07:53:15;100601.66;;;-1.78;100.00
22283;BME280;11310;51.528;21.204;2023-12-04T07:55:43;100596.56;;;-1.72;100.00
22283;BME280;11310;51.528;21.204;2023-12-04T07:58:15;100596.56;;;-1.72;100.00
22283;BME280;11310;51.528;21.204;2023-12-04T08:00:43;100612.94;;;-1.68;100.00
22283;BME280;11310;51.528;21.204;2023-12-04T08:03:12;100607.81;;;-1.65;100.00
22283;BME280;11310;51.528;21.204;2023-12-04T08:05:41;100616.44;;;-1.62;100.00
22283;BME280;11310;51.528;21.204;2023-12-04T08:08:13;100619.03;;;-1.59;100.00
22283;BME280;11310;51.528;21.204;2023-12-04T08:10:41;100622.50;;;-1.57;100.00
22283;BME280;11310;51.528;21.204;2023-12-04T08:13:13;100617.38;;;-1.54;100.00
22283;BME280;11310;51.528;21.204;2023-12-04T08:15:43;100613.13;;;-1.52;100.00
22283;BME280;11310;51.528;21.204;2023-12-04T08:18:12;100624.28;;;-1.50;100.00
22283;BME280;11310;51.528;21.204;2023-12-04T08:20:43;100621.78;;;-1.45;100.00
22283;BME280;11310;51.528;21.204;2023-12-04T08:23:12;100630.44;;;-1.39;100.00
22283;BME280;11310;51.528;21.204;2023-12-04T08:25:42;100623.56;;;-1.37;100.00
22283;BME280;11310;51.528;21.204;2023-12-04T08:28:10;100614.19;;;-1.32;100.00
22283;BME280;11310;51.528;21.204;2023-12-04T08:30:42;100625.41;;;-1.27;100.00
22283;BME280;11310;51.528;21.204;2023-12-04T08:33:11;100623.75;;;-1.23;100.00
22283;BME280;11310;51.528;21.204;2023-12-04T08:35:40;100623.78;;;-1.19;100.00
22283;BME280;11310;51.528;21.204;2023-12-04T08:38:09;100624.72;;;-1.12;100.00
22283;BME280;11310;51.528;21.204;2023-12-04T08:40:37;100624.72;;;-1.08;100.00
22283;BME280;11310;51.528;21.204;2023-12-04T08:43:06;100622.25;;;-1.02;100.00
22283;BME280;11310;51.528;21.204;2023-12-04T08:45:35;100621.38;;;-1.01;100.00
22283;BME280;11310;51.528;21.204;2023-12-04T08:48:05;100625.75;;;-0.94;100.00
22283;BME280;11310;51.528;21.204;2023-12-04T08:50:34;100624.91;;;-0.93;100.00
22283;BME280;11310;51.528;21.204;2023-12-04T08:53:03;100630.94;;;-0.89;100.00
22283;BME280;11310;51.528;21.204;2023-12-04T08:55:32;100633.56;;;-0.85;100.00
22283;BME280;11310;51.528;21.204;2023-12-04T08:58:05;100634.44;;;-0.81;100.00
22283;BME280;11310;51.528;21.204;2023-12-04T09:00:36;100637.06;;;-0.77;100.00
22283;BME280;11310;51.528;21.204;2023-12-04T09:03:12;100637.06;;;-0.75;100.00
22283;BME280;11310;51.528;21.204;2023-12-04T09:05:52;100635.38;;;-0.75;100.00
22283;BME280;11310;51.528;21.204;2023-12-04T09:08:22;100638.00;;;-0.67;100.00
22283;BME280;11310;51.528;21.204;2023-12-04T09:11:04;100635.50;;;-0.60;100.00
22283;BME280;11310;51.528;21.204;2023-12-04T09:13:36;100634.75;;;-0.45;100.00
22283;BME280;11310;51.528;21.204;2023-12-04T09:16:07;100639.91;;;-0.42;100.00
22283;BME280;11310;51.528;21.204;2023-12-04T09:18:37;100638.19;;;-0.43;100.00
22283;BME280;11310;51.528;21.204;2023-12-04T09:21:07;100639.03;;;-0.46;100.00
22283;BME280;11310;51.528;21.204;2023-12-04T09:23:36;100640.72;;;-0.51;100.00
22283;BME280;11310;51.528;21.204;2023-12-04T09:26:06;100645.06;;;-0.47;100.00
22283;BME280;11310;51.528;21.204;2023-12-04T09:28:35;100651.88;;;-0.49;100.00
22283;BME280;11310;51.528;21.204;2023-12-04T09:31:04;100650.16;;;-0.50;100.00
22283;BME280;11310;51.528;21.204;2023-12-04T09:33:34;100650.16;;;-0.53;100.00
22283;BME280;11310;51.528;21.204;2023-12-04T09:36:06;100646.72;;;-0.53;100.00
22283;BME280;11310;51.528;21.204;2023-12-04T09:38:34;100641.53;;;-0.55;100.00
22283;BME280;11310;51.528;21.204;2023-12-04T09:41:07;100638.94;;;-0.59;100.00
22283;BME280;11310;51.528;21.204;2023-12-04T09:43:37;100638.88;;;-0.64;100.00
22283;BME280;11310;51.528;21.204;2023-12-04T09:46:07;100640.59;;;-0.63;100.00
22283;BME280;11310;51.528;21.204;2023-12-04T09:48:37;100636.41;;;-0.55;100.00
22283;BME280;11310;51.528;21.204;2023-12-04T09:51:09;100632.16;;;-0.44;100.00
22283;BME280;11310;51.528;21.204;2023-12-04T09:53:38;100632.25;;;-0.38;100.00
22283;BME280;11310;51.528;21.204;2023-12-04T09:56:09;100629.72;;;-0.30;100.00
22283;BME280;11310;51.528;21.204;2023-12-04T09:58:40;100629.72;;;-0.26;100.00
22283;BME280;11310;51.528;21.204;2023-12-04T10:01:10;100629.72;;;-0.26;100.00
22283;BME280;11310;51.528;21.204;2023-12-04T10:03:40;100626.31;;;-0.23;100.00
22283;BME280;11310;51.528;21.204;2023-12-04T10:06:15;100629.69;;;-0.32;100.00
22283;BME280;11310;51.528;21.204;2023-12-04T10:08:45;100624.53;;;-0.33;100.00
22283;BME280;11310;51.528;21.204;2023-12-04T10:11:14;100624.53;;;-0.36;100.00
22283;BME280;11310;51.528;21.204;2023-12-04T10:13:42;100621.94;;;-0.35;100.00
22283;BME280;11310;51.528;21.204;2023-12-04T10:16:33;100616.84;;;-0.26;100.00
22283;BME280;11310;51.528;21.204;2023-12-04T10:19:16;100615.16;;;-0.24;100.00
22283;BME280;11310;51.528;21.204;2023-12-04T10:21:48;100620.31;;;-0.22;100.00
22283;BME280;11310;51.528;21.204;2023-12-04T10:24:33;100616.00;;;-0.26;100.00
22283;BME280;11310;51.528;21.204;2023-12-04T10:27:04;100615.13;;;-0.30;100.00
22283;BME280;11310;51.528;21.204;2023-12-04T10:29:43;100620.25;;;-0.33;100.00
22283;BME280;11310;51.528;21.204;2023-12-04T10:32:13;100612.53;;;-0.31;100.00
22283;BME280;11310;51.528;21.204;2023-12-04T10:34:47;100616.84;;;-0.26;100.00
22283;BME280;11310;51.528;21.204;2023-12-04T10:37:17;100620.34;;;-0.21;100.00
22283;BME280;11310;51.528;21.204;2023-12-04T10:39:48;100612.63;;;-0.15;100.00
22283;BME280;11310;51.528;21.204;2023-12-04T10:42:24;100614.34;;;-0.14;100.00
22283;BME280;11310;51.528;21.204;2023-12-04T10:44:55;100616.91;;;-0.17;100.00
22283;BME280;11310;51.528;21.204;2023-12-04T10:47:24;100616.84;;;-0.26;100.00
22283;BME280;11310;51.528;21.204;2023-12-04T10:49:54;100615.94;;;-0.34;100.00
22283;BME280;11310;51.528;21.204;2023-12-04T10:52:26;100617.53;;;-0.52;100.00
22283;BME280;11310;51.528;21.204;2023-12-04T10:54:58;100611.44;;;-0.62;100.00
22283;BME280;11310;51.528;21.204;2023-12-04T10:57:35;100614.84;;;-0.66;100.00
22283;BME280;11310;51.528;21.204;2023-12-04T11:00:06;100605.34;;;-0.71;100.00
22283;BME280;11310;51.528;21.204;2023-12-04T11:02:41;100612.19;;;-0.72;100.00
22283;BME280;11310;51.528;21.204;2023-12-04T11:05:16;100606.16;;;-0.77;100.00
22283;BME280;11310;51.528;21.204;2023-12-04T11:07:50;100607.00;;;-0.78;100.00
22283;BME280;11310;51.528;21.204;2023-12-04T11:10:45;100595.84;;;-0.77;100.00
22283;BME280;11310;51.528;21.204;2023-12-04T11:13:21;100605.25;;;-0.82;100.00
22283;BME280;11310;51.528;21.204;2023-12-04T11:15:52;100603.56;;;-0.80;100.00
22283;BME280;11310;51.528;21.204;2023-12-04T11:18:23;100595.78;;;-0.86;100.00
22283;BME280;11310;51.528;21.204;2023-12-04T11:20:56;100610.31;;;-0.91;100.00
22283;BME280;11310;51.528;21.204;2023-12-04T11:23:27;100608.59;;;-0.93;100.00
22283;BME280;11310;51.528;21.204;2023-12-04T11:25:58;100603.44;;;-0.96;100.00
22283;BME280;11310;51.528;21.204;2023-12-04T11:28:29;100610.25;;;-0.98;100.00
22283;BME280;11310;51.528;21.204;2023-12-04T11:30:58;100595.66;;;-0.99;100.00
22283;BME280;11310;51.528;21.204;2023-12-04T11:33:28;100606.19;;;-0.74;100.00
22283;BME280;11310;51.528;21.204;2023-12-04T11:36:06;100606.75;;;0.10;100.00
22283;BME280;11310;51.528;21.204;2023-12-04T11:38:44;100610.16;;;0.03;100.00
22283;BME280;11310;51.528;21.204;2023-12-04T11:41:17;100609.94;;;-0.28;100.00
22283;BME280;11310;51.528;21.204;2023-12-04T11:43:53;100612.38;;;-0.52;100.00
22283;BME280;11310;51.528;21.204;2023-12-04T11:46:25;100605.38;;;-0.65;100.00
22283;BME280;11310;51.528;21.204;2023-12-04T11:48:54;100604.44;;;-0.76;100.00
22283;BME280;11310;51.528;21.204;2023-12-04T11:51:45;100593.19;;;-0.87;100.00
22283;BME280;11310;51.528;21.204;2023-12-04T11:54:23;100595.72;;;-0.92;100.00
22283;BME280;11310;51.528;21.204;2023-12-04T11:59:46;100602.56;;;-0.97;100.00
22283;BME280;11310;51.528;21.204;2023-12-04T12:02:15;100593.97;;;-0.96;100.00
22283;BME280;11310;51.528;21.204;2023-12-04T12:04:44;100599.97;;;-0.97;100.00
22283;BME280;11310;51.528;21.204;2023-12-04T12:07:14;100593.06;;;-1.01;100.00
22283;BME280;11310;51.528;21.204;2023-12-04T12:09:44;100591.28;;;-1.06;100.00
22283;BME280;11310;51.528;21.204;2023-12-04T12:12:15;100590.44;;;-1.07;100.00
22283;BME280;11310;51.528;21.204;2023-12-04T12:14:44;100591.28;;;-1.09;100.00
22283;BME280;11310;51.528;21.204;2023-12-04T12:17:13;100600.66;;;-1.13;100.00
22283;BME280;11310;51.528;21.204;2023-12-04T12:19:41;100587.78;;;-1.13;100.00
22283;BME280;11310;51.528;21.204;2023-12-04T12:22:10;100583.53;;;-1.12;100.00
22283;BME280;11310;51.528;21.204;2023-12-04T12:24:39;100584.34;;;-1.15;100.00
22283;BME280;11310;51.528;21.204;2023-12-04T12:27:09;100592.06;;;-1.15;100.00
22283;BME280;11310;51.528;21.204;2023-12-04T12:29:42;100584.34;;;-1.15;100.00
22283;BME280;11310;51.528;21.204;2023-12-04T12:32:11;100582.66;;;-1.14;100.00
22283;BME280;11310;51.528;21.204;2023-12-04T12:34:40;100588.66;;;-1.14;100.00
22283;BME280;11310;51.528;21.204;2023-12-04T12:37:10;100583.50;;;-1.14;100.00
22283;BME280;11310;51.528;21.204;2023-12-04T12:39:40;100578.34;;;-1.17;100.00
22283;BME280;11310;51.528;21.204;2023-12-04T12:42:11;100568.06;;;-1.17;100.00
22283;BME280;11310;51.528;21.204;2023-12-04T12:44:41;100560.31;;;-1.18;100.00
22283;BME280;11310;51.528;21.204;2023-12-04T12:47:10;100562.88;;;-1.20;100.00
22283;BME280;11310;51.528;21.204;2023-12-04T12:49:39;100568.88;;;-1.21;100.00